Terminal Aerodrome Forecast
Issued by NWS

Home | Current Version | Previous Version | Text Only | Print | Product List | Glossary On
Versions: 1 2 3 4 5 6 7 8 9 10 11 12 13 14 15 16 17 18
000
FTUS45 KTFX 242100 AAA
TAFLWT
TAF AMD
KLWT 242129Z 2421/2518 28010KT P6SM OVC060
      TEMPO 2421/2424 VRB15G25KT -SHRA BKN035
     FM250100 28010KT P6SM BKN090
     FM250600 25006KT P6SM SCT200=

USA.gov is the U.S. government's official web portal to all federal, state and local government web resources and services.